Time;durP1;ratioP1;P1;durP2;ratioP2;P2;SDS_P1;SDS_P2;PMS_P1;PMS_P2;Temp;Humidity;BMP_temperature;BMP_pressure;BME280_temperature;BME280_humidity;BME280_pressure;Samples;Min_cycle;Max_cycle;Signal;HPM_P1;HPM_P2
2023/09/24 00:01:44;;;;;;;;;;;;;;;13.66;100.00;99837.81;4866219;29;19934;-79
2023/09/24 00:04:13;;;;;;;;;;;;;;;13.61;100.00;99834.81;4869568;29;19924;-78
2023/09/24 00:06:38;;;;;;;;;;;;;;;13.58;100.00;99824.50;4867109;29;19932;-78
2023/09/24 00:09:03;;;;;;;;;;;;;;;13.35;100.00;99832.13;4868395;29;19924;-77
2023/09/24 00:11:29;;;;;;;;;;;;;;;13.30;100.00;99829.94;4867480;29;20356;-78
2023/09/24 00:13:54;;;;;;;;;;;;;;;13.26;100.00;99836.50;4867683;29;19924;-78
2023/09/24 00:16:20;;;;;;;;;;;;;;;13.20;100.00;99831.81;4868619;29;19924;-78
2023/09/24 00:18:46;;;;;;;;;;;;;;;13.06;100.00;99837.63;4866108;29;19955;-80
2023/09/24 00:21:12;;;;;;;;;;;;;;;13.13;100.00;99838.75;4869406;29;19923;-77
2023/09/24 00:23:38;;;;;;;;;;;;;;;13.19;100.00;99840.78;4849601;29;20821;-76
2023/09/24 00:26:04;;;;;;;;;;;;;;;13.24;100.00;99838.50;4868361;29;19939;-76
2023/09/24 00:28:29;;;;;;;;;;;;;;;13.18;100.00;99849.72;4867369;29;20010;-77
2023/09/24 00:30:55;;;;;;;;;;;;;;;13.13;100.00;99857.28;4867123;29;19931;-77
2023/09/24 00:33:21;;;;;;;;;;;;;;;13.14;100.00;99845.69;4851692;29;20369;-78
2023/09/24 00:35:47;;;;;;;;;;;;;;;13.17;100.00;99848.03;4866619;29;19924;-77
2023/09/24 00:38:12;;;;;;;;;;;;;;;13.15;100.00;99855.28;4852682;29;20301;-78
2023/09/24 00:40:38;;;;;;;;;;;;;;;13.21;100.00;99844.09;4866041;29;20030;-77
2023/09/24 00:43:03;;;;;;;;;;;;;;;13.23;100.00;99852.72;4868434;29;19930;-78
2023/09/24 00:45:28;;;;;;;;;;;;;;;13.22;100.00;99851.06;4850815;29;19926;-77
2023/09/24 00:47:57;;;;;;;;;;;;;;;13.16;100.00;99845.53;4866824;29;20373;-78
2023/09/24 00:50:33;;;;;;;;;;;;;;;13.14;100.00;99848.31;4867813;29;19923;-78
2023/09/24 00:52:58;;;;;;;;;;;;;;;13.16;100.00;99859.63;4850801;29;20298;-78
2023/09/24 00:55:26;;;;;;;;;;;;;;;13.21;100.00;99854.69;4867649;29;19931;-78
2023/09/24 00:57:51;;;;;;;;;;;;;;;13.23;100.00;99847.44;4865296;29;19959;-78
2023/09/24 01:00:19;;;;;;;;;;;;;;;13.24;100.00;99851.75;4866961;29;19988;-78
2023/09/24 01:02:47;;;;;;;;;;;;;;;13.28;100.00;99850.44;4863608;29;19924;-77
2023/09/24 01:05:14;;;;;;;;;;;;;;;13.15;100.00;99855.28;4868881;29;20427;-77
2023/09/24 01:07:41;;;;;;;;;;;;;;;13.06;100.00;99856.19;4866121;29;20397;-77
2023/09/24 01:10:07;;;;;;;;;;;;;;;13.11;100.00;99853.91;4852067;29;20292;-79
2023/09/24 01:12:33;;;;;;;;;;;;;;;13.10;100.00;99857.53;4866865;29;19924;-78
2023/09/24 01:14:59;;;;;;;;;;;;;;;13.04;100.00;99858.13;4871105;29;19974;-79
2023/09/24 01:17:25;;;;;;;;;;;;;;;12.84;100.00;99867.22;4870864;29;20270;-80
2023/09/24 01:19:53;;;;;;;;;;;;;;;12.85;100.00;99864.41;4866601;29;19931;-79
2023/09/24 01:22:19;;;;;;;;;;;;;;;12.80;100.00;99871.13;4866328;29;19966;-78
2023/09/24 01:24:45;;;;;;;;;;;;;;;12.67;100.00;99861.72;4852646;29;19970;-78
2023/09/24 01:27:10;;;;;;;;;;;;;;;12.68;100.00;99862.56;4865898;29;19928;-79
2023/09/24 01:29:36;;;;;;;;;;;;;;;12.70;100.00;99858.81;4868218;29;19932;-78
2023/09/24 01:32:06;;;;;;;;;;;;;;;12.59;100.00;99874.91;4867026;29;19924;-78
2023/09/24 01:34:32;;;;;;;;;;;;;;;12.42;100.00;99867.75;4850705;29;20412;-78
2023/09/24 01:36:58;;;;;;;;;;;;;;;12.37;100.00;99875.25;4872025;29;19932;-79
2023/09/24 01:39:29;;;;;;;;;;;;;;;12.24;100.00;99874.78;4870933;29;19947;-78
2023/09/24 01:41:54;;;;;;;;;;;;;;;12.18;100.00;99876.19;4870241;29;20065;-78
2023/09/24 01:44:21;;;;;;;;;;;;;;;12.21;100.00;99875.91;4871737;29;19963;-78
2023/09/24 01:46:47;;;;;;;;;;;;;;;12.24;100.00;99874.78;4869077;29;19963;-78
2023/09/24 01:49:13;;;;;;;;;;;;;;;12.33;100.00;99879.19;4855574;29;19923;-79
2023/09/24 01:51:39;;;;;;;;;;;;;;;12.41;100.00;99876.66;4867719;29;20396;-79
2023/09/24 01:54:05;;;;;;;;;;;;;;;12.37;100.00;99880.56;4853147;29;20034;-79
2023/09/24 01:56:30;;;;;;;;;;;;;;;12.26;100.00;99883.38;4853695;29;19925;-78
2023/09/24 01:58:56;;;;;;;;;;;;;;;12.20;100.00;99891.91;4870690;29;20338;-79
2023/09/24 02:01:22;;;;;;;;;;;;;;;12.23;100.00;99896.94;4852696;29;20436;-79
2023/09/24 02:03:48;;;;;;;;;;;;;;;12.26;100.00;99904.56;4854916;29;20481;-77
2023/09/24 02:06:14;;;;;;;;;;;;;;;12.16;100.00;99898.47;4872072;29;19924;-78
2023/09/24 02:08:39;;;;;;;;;;;;;;;12.24;100.00;99903.88;4843876;29;19935;-78
2023/09/24 02:11:04;;;;;;;;;;;;;;;12.16;100.00;99903.75;4860922;29;19931;-78
2023/09/24 02:13:30;;;;;;;;;;;;;;;11.94;100.00;99904.94;4860480;29;19924;-79
2023/09/24 02:15:56;;;;;;;;;;;;;;;11.56;100.00;99911.09;4844240;29;20078;-79
2023/09/24 02:18:22;;;;;;;;;;;;;;;11.56;100.00;99918.19;4860707;29;20305;-78
2023/09/24 02:20:51;;;;;;;;;;;;;;;11.49;100.00;99915.25;4860741;29;20574;-79
2023/09/24 02:23:17;;;;;;;;;;;;;;;11.35;100.00;99918.34;4860615;29;19924;-79
2023/09/24 02:25:44;;;;;;;;;;;;;;;11.48;100.00;99918.91;4860021;29;19928;-78
2023/09/24 02:28:10;;;;;;;;;;;;;;;11.63;100.00;99921.94;4860632;29;20412;-78
2023/09/24 02:30:36;;;;;;;;;;;;;;;11.74;100.00;99927.94;4860286;29;19928;-78
2023/09/24 02:33:02;;;;;;;;;;;;;;;11.71;100.00;99920.28;4843906;29;19924;-78
2023/09/24 02:35:28;;;;;;;;;;;;;;;11.56;100.00;99926.94;4860149;29;20445;-77
2023/09/24 02:37:53;;;;;;;;;;;;;;;11.56;100.00;99934.88;4860210;29;19928;-79
2023/09/24 02:40:23;;;;;;;;;;;;;;;11.44;100.00;99930.69;4827967;29;20018;-77
2023/09/24 02:42:51;;;;;;;;;;;;;;;11.42;100.00;99933.50;4860284;29;20022;-78
2023/09/24 02:45:17;;;;;;;;;;;;;;;11.40;100.00;99932.81;4860526;29;20034;-78
2023/09/24 02:47:43;;;;;;;;;;;;;;;11.29;100.00;99940.03;4843495;29;19928;-78
2023/09/24 02:50:12;;;;;;;;;;;;;;;11.43;100.00;99947.53;4860270;29;20015;-77
2023/09/24 02:52:39;;;;;;;;;;;;;;;11.47;100.00;99949.78;4859575;29;20020;-78
2023/09/24 02:55:06;;;;;;;;;;;;;;;11.54;100.00;99949.22;4859646;29;19924;-77
2023/09/24 02:57:32;;;;;;;;;;;;;;;11.58;100.00;99951.44;4859715;29;19930;-78
2023/09/24 02:59:58;;;;;;;;;;;;;;;11.64;100.00;99945.59;4860174;29;19951;-78
2023/09/24 03:02:23;;;;;;;;;;;;;;;11.72;100.00;99958.94;4843200;29;20400;-78
2023/09/24 03:04:50;;;;;;;;;;;;;;;11.70;100.00;99952.97;4860099;29;19924;-78
2023/09/24 03:07:15;;;;;;;;;;;;;;;11.67;100.00;99955.88;4860041;29;19924;-79
2023/09/24 03:09:41;;;;;;;;;;;;;;;11.62;100.00;99952.81;4864377;29;20404;-78
2023/09/24 03:12:07;;;;;;;;;;;;;;;11.57;100.00;99960.34;4870092;29;20015;-78
2023/09/24 03:14:33;;;;;;;;;;;;;;;11.60;100.00;99959.25;4851495;29;19923;-78
2023/09/24 03:16:59;;;;;;;;;;;;;;;11.57;100.00;99955.06;4869320;29;20037;-78
2023/09/24 03:19:26;;;;;;;;;;;;;;;11.64;100.00;99956.16;4868568;29;20464;-77
2023/09/24 03:21:53;;;;;;;;;;;;;;;11.54;100.00;99963.28;4868321;29;19924;-78
2023/09/24 03:24:19;;;;;;;;;;;;;;;11.31;100.00;99967.97;4869518;29;19928;-78
2023/09/24 03:26:45;;;;;;;;;;;;;;;11.24;100.00;99968.66;4866986;29;19935;-78
2023/09/24 03:29:10;;;;;;;;;;;;;;;11.25;100.00;99975.63;4870385;29;19928;-78
2023/09/24 03:31:36;;;;;;;;;;;;;;;11.35;100.00;99976.47;4867352;29;19939;-77
2023/09/24 03:34:02;;;;;;;;;;;;;;;11.32;100.00;99976.72;4852573;29;19931;-78
2023/09/24 03:36:27;;;;;;;;;;;;;;;11.20;100.00;99983.09;4852141;29;20365;-78
2023/09/24 03:38:53;;;;;;;;;;;;;;;11.20;100.00;99983.94;4868183;29;19973;-77
2023/09/24 03:41:18;;;;;;;;;;;;;;;11.25;100.00;99994.13;4859352;29;20405;-79
2023/09/24 03:43:45;;;;;;;;;;;;;;;11.25;100.00;99991.47;4854621;29;19928;-78
2023/09/24 03:46:11;;;;;;;;;;;;;;;11.31;100.00;99996.22;4853128;29;19930;-77
2023/09/24 03:48:36;;;;;;;;;;;;;;;11.28;100.00;100001.75;4869330;29;20027;-77
2023/09/24 03:51:02;;;;;;;;;;;;;;;11.13;100.00;100003.13;4872084;29;20438;-78
2023/09/24 03:53:27;;;;;;;;;;;;;;;10.94;100.00;100010.03;4871139;29;20110;-78
2023/09/24 03:55:53;;;;;;;;;;;;;;;10.86;100.00;100007.19;4872397;29;20281;-78
2023/09/24 03:58:18;;;;;;;;;;;;;;;10.78;100.00;100004.38;4870187;29;19919;-77
2023/09/24 04:00:44;;;;;;;;;;;;;;;10.85;100.00;100008.16;4873357;29;19980;-78
2023/09/24 04:03:09;;;;;;;;;;;;;;;10.79;100.00;99997.28;4869935;29;19924;-78
2023/09/24 04:05:35;;;;;;;;;;;;;;;10.76;100.00;100014.25;4850788;29;19970;-77
2023/09/24 04:08:01;;;;;;;;;;;;;;;10.72;100.00;100015.47;4868372;29;19924;-77
2023/09/24 04:10:28;;;;;;;;;;;;;;;10.72;100.00;100020.75;4851152;29;19930;-78
2023/09/24 04:12:53;;;;;;;;;;;;;;;10.74;100.00;100029.38;4867158;29;19925;-78
2023/09/24 04:15:21;;;;;;;;;;;;;;;10.80;100.00;100028.84;4852496;29;20432;-77
2023/09/24 04:17:48;;;;;;;;;;;;;;;10.89;100.00;100043.91;4866258;29;19924;-77
2023/09/24 04:20:20;;;;;;;;;;;;;;;10.96;100.00;100045.03;4852772;29;20305;-78
2023/09/24 04:22:45;;;;;;;;;;;;;;;10.97;100.00;100051.97;4866222;29;19971;-78
2023/09/24 04:25:14;;;;;;;;;;;;;;;10.94;100.00;100044.34;4868944;29;19965;-78
2023/09/24 04:27:40;;;;;;;;;;;;;;;10.93;100.00;100049.75;4865600;29;20017;-77
2023/09/24 04:30:11;;;;;;;;;;;;;;;10.91;100.00;100052.50;4868235;29;20012;-78
2023/09/24 04:32:36;;;;;;;;;;;;;;;10.99;100.00;100055.34;4866293;29;20374;-77
2023/09/24 04:35:02;;;;;;;;;;;;;;;11.03;100.00;100059.38;4868576;29;19963;-77
2023/09/24 04:37:27;;;;;;;;;;;;;;;11.09;100.00;100065.94;4867424;29;20002;-77
2023/09/24 04:39:53;;;;;;;;;;;;;;;11.14;100.00;100068.16;4866612;29;19989;-77
2023/09/24 04:42:18;;;;;;;;;;;;;;;11.12;100.00;100064.84;4868678;29;19924;-76
2023/09/24 04:44:44;;;;;;;;;;;;;;;11.11;100.00;100063.16;4849210;29;19931;-77
2023/09/24 04:47:09;;;;;;;;;;;;;;;11.12;100.00;100070.13;4868683;29;19980;-76
2023/09/24 04:49:35;;;;;;;;;;;;;;;11.05;100.00;100075.09;4874185;29;19952;-77
2023/09/24 04:52:01;;;;;;;;;;;;;;;10.95;100.00;100079.50;4876878;29;19927;-78
2023/09/24 04:54:26;;;;;;;;;;;;;;;10.88;100.00;100078.34;4859095;29;19924;-78
2023/09/24 04:56:52;;;;;;;;;;;;;;;10.84;100.00;100071.69;4876620;29;21333;-75
2023/09/24 04:59:18;;;;;;;;;;;;;;;10.77;100.00;100074.00;4859552;29;19967;-78
2023/09/24 05:01:43;;;;;;;;;;;;;;;10.70;100.00;100075.50;4872054;29;20412;-79
2023/09/24 05:04:09;;;;;;;;;;;;;;;10.55;100.00;100076.78;4869716;29;19924;-78
2023/09/24 05:06:34;;;;;;;;;;;;;;;10.60;100.00;100083.34;4871899;29;20389;-77
2023/09/24 05:09:00;;;;;;;;;;;;;;;10.57;100.00;100090.69;4866678;29;19924;-78
2023/09/24 05:11:25;;;;;;;;;;;;;;;10.61;100.00;100084.19;4875278;29;19931;-79
2023/09/24 05:13:50;;;;;;;;;;;;;;;10.52;100.00;100093.72;4879844;29;19930;-78
2023/09/24 05:16:16;;;;;;;;;;;;;;;10.52;100.00;100092.88;4880280;29;19923;-77
2023/09/24 05:18:41;;;;;;;;;;;;;;;10.43;100.00;100096.28;4878043;29;19931;-78
2023/09/24 05:21:17;;;;;;;;;;;;;;;10.45;100.00;100102.28;4880149;29;19924;-78
2023/09/24 05:23:43;;;;;;;;;;;;;;;10.52;100.00;100106.06;4878221;29;19980;-79
2023/09/24 05:26:13;;;;;;;;;;;;;;;10.55;100.00;100111.09;4876660;29;20288;-75
2023/09/24 05:28:38;;;;;;;;;;;;;;;10.56;100.00;100115.41;4871600;29;20137;-80
2023/09/24 05:31:05;;;;;;;;;;;;;;;10.52;100.00;100111.34;4870906;29;20331;-79
2023/09/24 05:33:31;;;;;;;;;;;;;;;10.41;100.00;100119.34;4870290;29;19931;-79
2023/09/24 05:35:56;;;;;;;;;;;;;;;10.47;100.00;100121.47;4872238;29;19924;-80
2023/09/24 05:38:21;;;;;;;;;;;;;;;10.43;100.00;100115.59;4871556;29;20375;-79
2023/09/24 05:40:47;;;;;;;;;;;;;;;10.48;100.00;100118.69;4868757;29;19925;-80
2023/09/24 05:43:12;;;;;;;;;;;;;;;10.39;100.00;100118.63;4872375;29;20460;-79
2023/09/24 05:45:48;;;;;;;;;;;;;;;10.43;100.00;100118.22;4869312;29;20294;-78
2023/09/24 05:48:17;;;;;;;;;;;;;;;10.35;100.00;100122.47;4872214;29;20018;-77
2023/09/24 05:50:43;;;;;;;;;;;;;;;10.37;100.00;100120.56;4868734;29;19920;-76
2023/09/24 05:53:09;;;;;;;;;;;;;;;10.37;100.00;100121.38;4871616;29;20042;-77
2023/09/24 05:55:34;;;;;;;;;;;;;;;10.47;100.00;100126.75;4869245;29;19931;-77
2023/09/24 05:58:00;;;;;;;;;;;;;;;10.51;100.00;100128.16;4870519;29;19924;-78
2023/09/24 06:00:28;;;;;;;;;;;;;;;10.55;100.00;100127.75;4870418;29;20354;-78
2023/09/24 06:02:53;;;;;;;;;;;;;;;10.57;100.00;100123.19;4869371;29;19932;-78
2023/09/24 06:05:19;;;;;;;;;;;;;;;10.55;100.00;100127.75;4871921;29;19928;-79
2023/09/24 06:07:44;;;;;;;;;;;;;;;10.57;100.00;100132.91;4868458;29;20326;-78
2023/09/24 06:10:10;;;;;;;;;;;;;;;10.57;100.00;100131.13;4871333;29;19967;-77
2023/09/24 06:12:35;;;;;;;;;;;;;;;10.48;100.00;100128.41;4869121;29;20308;-78
2023/09/24 06:15:01;;;;;;;;;;;;;;;10.53;100.00;100131.50;4853957;29;19924;-79
2023/09/24 06:17:29;;;;;;;;;;;;;;;10.64;100.00;100139.34;4869207;29;19932;-78
2023/09/24 06:19:55;;;;;;;;;;;;;;;10.70;100.00;100132.72;4869303;29;20326;-79
2023/09/24 06:22:22;;;;;;;;;;;;;;;10.77;100.00;100140.00;4870395;29;19999;-78
2023/09/24 06:24:49;;;;;;;;;;;;;;;10.81;100.00;100146.69;4868150;29;20085;-78
2023/09/24 06:27:16;;;;;;;;;;;;;;;10.88;100.00;100136.44;4871563;29;19932;-80
2023/09/24 06:29:41;;;;;;;;;;;;;;;10.99;100.00;100139.84;4868185;29;20011;-78
2023/09/24 06:32:06;;;;;;;;;;;;;;;11.09;100.00;100140.72;4870699;29;19996;-80
2023/09/24 06:34:35;;;;;;;;;;;;;;;11.17;100.00;100139.22;4868778;29;19931;-79
2023/09/24 06:37:00;;;;;;;;;;;;;;;11.27;100.00;100138.28;4870570;29;20018;-78
2023/09/24 06:39:26;;;;;;;;;;;;;;;11.34;100.00;100149.16;4869627;29;20087;-78
2023/09/24 06:41:51;;;;;;;;;;;;;;;11.45;100.00;100146.44;4868831;29;20394;-78
2023/09/24 06:44:23;;;;;;;;;;;;;;;11.54;100.00;100139.50;4871025;29;20017;-78
2023/09/24 06:46:51;;;;;;;;;;;;;;;11.65;100.00;100137.59;4851355;29;20361;-78
2023/09/24 06:49:17;;;;;;;;;;;;;;;11.67;100.00;100143.56;4871087;29;19924;-79
2023/09/24 06:51:42;;;;;;;;;;;;;;;11.65;100.00;100142.88;4866587;29;19928;-79
2023/09/24 06:54:08;;;;;;;;;;;;;;;11.72;100.00;100146.63;4869353;29;19928;-77
2023/09/24 06:56:33;;;;;;;;;;;;;;;11.78;100.00;100146.13;4869111;29;19927;-79
2023/09/24 06:58:58;;;;;;;;;;;;;;;11.87;100.00;100147.97;4869630;29;20346;-80
2023/09/24 07:01:24;;;;;;;;;;;;;;;12.00;100.00;100157.47;4874695;29;19994;-78
2023/09/24 07:03:51;;;;;;;;;;;;;;;12.04;100.00;100156.19;4875116;29;20032;-76
2023/09/24 07:06:17;;;;;;;;;;;;;;;12.13;100.00;100153.59;4861025;29;20002;-78
2023/09/24 07:08:43;;;;;;;;;;;;;;;12.28;100.00;100156.63;4869419;29;20449;-77
2023/09/24 07:11:25;;;;;;;;;;;;;;;12.34;100.00;100156.09;4870470;29;20011;-77
2023/09/24 07:13:51;;;;;;;;;;;;;;;12.40;100.00;100160.81;4869997;29;19964;-77
2023/09/24 07:16:18;;;;;;;;;;;;;;;12.48;100.00;100157.47;4871205;29;20469;-77
2023/09/24 07:18:44;;;;;;;;;;;;;;;12.61;100.00;100169.44;4865307;29;20036;-77
2023/09/24 07:21:09;;;;;;;;;;;;;;;12.69;100.00;100160.78;4874625;29;19927;-77
2023/09/24 07:23:52;;;;;;;;;;;;;;;12.78;100.00;100164.41;4872604;29;20396;-78
2023/09/24 07:26:18;;;;;;;;;;;;;;;12.90;100.00;100160.63;4833357;29;20385;-78
2023/09/24 07:28:44;;;;;;;;;;;;;;;13.03;100.00;100163.78;4877015;29;19980;-77
2023/09/24 07:31:19;;;;;;;;;;;;;;;13.07;100.00;100160.72;4872044;29;20359;-78
2023/09/24 07:33:44;;;;;;;;;;;;;;;13.10;100.00;100164.88;4866459;29;19934;-77
2023/09/24 07:36:10;;;;;;;;;;;;;;;13.22;100.00;100165.56;4870607;29;19924;-75
2023/09/24 07:38:36;;;;;;;;;;;;;;;13.33;100.00;100160.94;4870707;29;20019;-77
2023/09/24 07:41:01;;;;;;;;;;;;;;;13.44;100.00;100160.75;4871307;29;19924;-75
2023/09/24 07:43:27;;;;;;;;;;;;;;;13.51;100.00;100164.47;4876559;29;20026;-75
2023/09/24 07:45:53;;;;;;;;;;;;;;;13.52;100.00;100166.16;4870187;29;20007;-76
2023/09/24 07:48:18;;;;;;;;;;;;;;;13.56;100.00;100160.53;4870142;29;20016;-75
2023/09/24 07:50:53;;;;;;;;;;;;;;;13.66;100.00;100166.66;4869940;29;19935;-77
2023/09/24 07:53:19;;;;;;;;;;;;;;;13.72;100.00;100160.75;4866398;29;20377;-79
2023/09/24 07:55:45;;;;;;;;;;;;;;;13.84;100.00;100155.09;4872090;29;20459;-77
2023/09/24 07:58:10;;;;;;;;;;;;;;;13.93;100.00;100154.19;4872434;29;19920;-79
2023/09/24 08:00:36;;;;;;;;;;;;;;;14.01;100.00;100161.41;4870618;29;19927;-83
2023/09/24 08:03:02;;;;;;;;;;;;;;;14.12;100.00;100163.84;4875792;29;19933;-76
2023/09/24 08:05:28;;;;;;;;;;;;;;;14.26;100.00;100165.97;4857298;29;19981;-78
2023/09/24 08:07:53;;;;;;;;;;;;;;;14.38;100.00;100168.44;4870730;29;20354;-78
2023/09/24 08:10:19;;;;;;;;;;;;;;;14.46;100.00;100165.84;4880668;29;20003;-78
2023/09/24 08:12:44;;;;;;;;;;;;;;;14.56;100.00;100166.59;4871879;29;19931;-77
2023/09/24 08:15:10;;;;;;;;;;;;;;;14.66;100.00;100167.38;4852695;29;19930;-78
2023/09/24 08:17:36;;;;;;;;;;;;;;;14.76;100.00;100168.09;4871772;29;19920;-82
2023/09/24 08:20:01;;;;;;;;;;;;;;;14.79;100.00;100172.25;4871193;29;19988;-76
2023/09/24 08:22:27;;;;;;;;;;;;;;;14.87;100.00;100170.50;4868414;29;20346;-78
2023/09/24 08:24:52;;;;;;;;;;;;;;;14.95;100.00;100173.22;4856875;29;20282;-80
2023/09/24 08:27:18;;;;;;;;;;;;;;;15.03;100.00;100175.09;4875045;29;19928;-78
2023/09/24 08:29:43;;;;;;;;;;;;;;;15.13;100.00;100175.84;4871147;29;20019;-77
2023/09/24 08:32:09;;;;;;;;;;;;;;;15.20;100.00;100174.19;4875626;29;19967;-78
2023/09/24 08:34:34;;;;;;;;;;;;;;;15.29;100.00;100185.72;4871882;29;19924;-77
2023/09/24 08:37:00;;;;;;;;;;;;;;;15.38;100.00;100184.75;4872385;29;19920;-78
2023/09/24 08:39:25;;;;;;;;;;;;;;;15.43;100.00;100193.94;4870233;29;19983;-78
2023/09/24 08:41:53;;;;;;;;;;;;;;;15.49;100.00;100187.19;4872320;29;19924;-77
2023/09/24 08:44:22;;;;;;;;;;;;;;;15.57;100.00;100184.56;4869585;29;20410;-75
2023/09/24 08:46:49;;;;;;;;;;;;;;;15.67;100.00;100189.78;4872189;29;19924;-75
2023/09/24 08:49:16;;;;;;;;;;;;;;;15.74;100.00;100185.47;4870442;29;20391;-78
2023/09/24 08:51:42;;;;;;;;;;;;;;;15.81;100.00;100182.00;4866304;29;19994;-78
2023/09/24 08:54:08;;;;;;;;;;;;;;;15.85;100.00;100183.34;4855766;29;19931;-78
2023/09/24 08:56:34;;;;;;;;;;;;;;;15.93;100.00;100180.72;4871694;29;20011;-78
2023/09/24 08:58:59;;;;;;;;;;;;;;;16.02;100.00;100176.25;4869770;29;20019;-79
2023/09/24 09:01:25;;;;;;;;;;;;;;;16.11;100.00;100171.78;4873811;29;19931;-78
2023/09/24 09:03:50;;;;;;;;;;;;;;;16.20;100.00;100181.47;4873230;29;19924;-78
2023/09/24 09:06:32;;;;;;;;;;;;;;;16.27;100.00;100180.63;4870032;29;19931;-77
2023/09/24 09:08:58;;;;;;;;;;;;;;;16.36;100.00;100176.16;4869736;29;19927;-77
2023/09/24 09:11:38;;;;;;;;;;;;;;;16.40;100.00;100166.81;4871869;29;19979;-79
2023/09/24 09:14:03;;;;;;;;;;;;;;;16.49;100.00;100179.16;4870557;29;19931;-78
2023/09/24 09:16:29;;;;;;;;;;;;;;;16.53;100.00;100167.16;4870270;29;20084;-79
2023/09/24 09:19:02;;;;;;;;;;;;;;;16.62;100.00;100171.53;4851962;29;20088;-79
2023/09/24 09:21:27;;;;;;;;;;;;;;;16.69;100.00;100171.69;4869378;29;20018;-77
2023/09/24 09:23:53;;;;;;;;;;;;;;;16.75;100.00;100163.88;4869307;29;19955;-76
2023/09/24 09:26:24;;;;;;;;;;;;;;;16.83;100.00;100167.53;4872481;29;20409;-77
2023/09/24 09:28:50;;;;;;;;;;;;;;;16.90;100.00;100171.19;4872104;29;19924;-77
2023/09/24 09:31:15;;;;;;;;;;;;;;;16.98;100.00;100165.84;4869180;29;19983;-76
2023/09/24 09:33:42;;;;;;;;;;;;;;;17.05;100.00;100166.81;4874705;29;19928;-76
2023/09/24 09:36:27;;;;;;;;;;;;;;;17.13;100.00;100158.81;4870030;29;19931;-79
2023/09/24 09:38:54;;;;;;;;;;;;;;;17.21;100.00;100161.44;4874840;29;19924;-77
2023/09/24 09:41:23;;;;;;;;;;;;;;;17.29;100.00;100164.09;4871263;29;19924;-76
2023/09/24 09:43:49;;;;;;;;;;;;;;;17.33;100.00;100153.91;4868500;29;19928;-76
2023/09/24 09:46:18;;;;;;;;;;;;;;;17.38;100.00;100157.72;4871861;29;19945;-78
2023/09/24 09:48:53;;;;;;;;;;;;;;;17.43;100.00;100155.41;4868670;29;19931;-79
2023/09/24 09:51:22;;;;;;;;;;;;;;;17.48;100.00;100147.72;4872701;29;19984;-78
2023/09/24 09:54:14;;;;;;;;;;;;;;;17.52;100.00;100143.69;4852543;29;20031;-78
2023/09/24 09:56:43;;;;;;;;;;;;;;;17.56;100.00;100145.00;4855880;29;19992;-77
2023/09/24 09:59:09;;;;;;;;;;;;;;;17.63;100.00;100149.66;4875157;29;19943;-76
2023/09/24 10:01:39;;;;;;;;;;;;;;;17.68;100.00;100141.97;4881521;29;19924;-77
2023/09/24 10:04:06;;;;;;;;;;;;;;;17.75;100.00;100148.28;4877626;29;19920;-78
2023/09/24 10:06:37;;;;;;;;;;;;;;;17.85;100.00;100143.53;4857018;29;19987;-77
2023/09/24 10:09:22;;;;;;;;;;;;;;;17.88;100.00;100137.88;4870473;29;19924;-79
2023/09/24 10:11:51;;;;;;;;;;;;;;;17.99;100.00;100140.13;4874026;29;20379;-76
2023/09/24 10:14:30;;;;;;;;;;;;;;;18.01;100.00;100138.13;4871773;29;20399;-77
2023/09/24 10:16:55;;;;;;;;;;;;;;;18.05;100.00;100144.78;4867047;29;20406;-79
2023/09/24 10:19:21;;;;;;;;;;;;;;;18.13;100.00;100146.56;4873752;29;19956;-78
2023/09/24 10:21:47;;;;;;;;;;;;;;;18.17;100.00;100142.53;4871198;29;19927;-77
2023/09/24 10:24:12;;;;;;;;;;;;;;;18.24;100.00;100138.16;4870911;29;19946;-80
2023/09/24 10:27:03;;;;;;;;;;;;;;;18.27;100.00;100132.44;4872659;29;20552;-80
2023/09/24 10:29:58;;;;;;;;;;;;;;;18.29;100.00;100136.59;4875275;29;20282;-79
2023/09/24 10:32:24;;;;;;;;;;;;;;;18.34;100.00;100128.88;4870587;29;19927;-76
2023/09/24 10:34:55;;;;;;;;;;;;;;;18.38;100.00;100134.69;4872076;29;20412;-79
2023/09/24 10:37:20;;;;;;;;;;;;;;;18.39;100.00;100126.50;4866870;29;20757;-76
2023/09/24 10:39:58;;;;;;;;;;;;;;;18.44;100.00;100122.47;4870076;29;19981;-76
2023/09/24 10:42:24;;;;;;;;;;;;;;;18.47;100.00;100130.13;4868264;29;19928;-76
2023/09/24 10:45:09;;;;;;;;;;;;;;;18.51;100.00;100120.72;4867688;29;19981;-78
2023/09/24 10:47:42;;;;;;;;;;;;;;;18.54;100.00;100120.38;4860077;29;19979;-77
2023/09/24 10:50:08;;;;;;;;;;;;;;;18.59;100.00;100121.53;4872159;29;19963;-77
2023/09/24 10:52:52;;;;;;;;;;;;;;;18.67;100.00;100120.63;4851879;29;19928;-78
2023/09/24 10:55:27;;;;;;;;;;;;;;;18.74;100.00;100129.56;4874528;29;19935;-78
2023/09/24 10:57:53;;;;;;;;;;;;;;;18.82;100.00;100132.19;4853989;29;19924;-78
2023/09/24 11:00:20;;;;;;;;;;;;;;;18.85;100.00;100131.00;4868339;29;20313;-77
2023/09/24 11:02:53;;;;;;;;;;;;;;;18.92;100.00;100127.38;4871563;29;19938;-79
2023/09/24 11:05:18;;;;;;;;;;;;;;;18.97;100.00;100135.69;4873530;29;19982;-76
2023/09/24 11:07:46;;;;;;;;;;;;;;;19.02;100.00;100133.31;4867133;29;20428;-78
2023/09/24 11:10:17;;;;;;;;;;;;;;;19.06;100.00;100129.25;4872328;29;19927;-79
2023/09/24 11:12:49;;;;;;;;;;;;;;;19.11;100.00;100121.50;4869525;29;20001;-78
2023/09/24 11:15:17;;;;;;;;;;;;;;;19.25;100.00;100119.03;4524231;29;10000287;-80
2023/09/24 11:17:44;;;;;;;;;;;;;;;19.35;94.39;100122.25;4878122;29;20352;-80
2023/09/24 11:20:09;;;;;;;;;;;;;;;19.41;99.07;100121.50;4861535;29;19923;-79
2023/09/24 11:22:35;;;;;;;;;;;;;;;19.52;98.70;100118.38;4877094;29;20620;-80
2023/09/24 11:25:08;;;;;;;;;;;;;;;19.65;94.01;100113.19;4878576;29;19930;-80
2023/09/24 11:27:35;;;;;;;;;;;;;;;19.75;91.71;100113.72;4876823;29;19979;-77
2023/09/24 11:30:02;;;;;;;;;;;;;;;19.84;90.09;100107.25;4877979;29;19924;-79
2023/09/24 11:32:28;;;;;;;;;;;;;;;19.98;88.28;100114.41;4873249;29;19930;-80
2023/09/24 11:35:05;;;;;;;;;;;;;;;20.14;90.00;100105.31;4868126;29;19923;-79
2023/09/24 11:37:43;;;;;;;;;;;;;;;20.30;93.74;100106.88;4876278;29;19923;-79
2023/09/24 11:40:19;;;;;;;;;;;;;;;20.51;93.82;100100.69;4874845;29;20381;-80
2023/09/24 11:42:49;;;;;;;;;;;;;;;20.61;91.81;100099.38;4870995;29;19958;-80
2023/09/24 11:45:14;;;;;;;;;;;;;;;20.73;91.16;100103.19;4867334;29;20270;-79
2023/09/24 11:47:40;;;;;;;;;;;;;;;20.88;92.07;100100.38;4853630;29;19931;-79
2023/09/24 11:50:05;;;;;;;;;;;;;;;21.02;90.65;100095.94;4870453;29;19947;-78
2023/09/24 11:52:31;;;;;;;;;;;;;;;21.13;89.65;100092.69;4868054;29;20297;-81
2023/09/24 11:54:57;;;;;;;;;;;;;;;21.31;91.42;100084.16;4870257;29;20300;-81
2023/09/24 11:57:22;;;;;;;;;;;;;;;21.48;91.76;100080.94;4867317;29;19947;-82
2023/09/24 11:59:47;;;;;;;;;;;;;;;21.69;91.33;100084.50;4849831;29;19928;-79
2023/09/24 12:02:13;;;;;;;;;;;;;;;21.89;91.04;100096.13;4872927;29;20456;-81
2023/09/24 12:04:38;;;;;;;;;;;;;;;22.04;88.21;100086.06;4867568;29;19939;-81
2023/09/24 12:07:03;;;;;;;;;;;;;;;22.18;88.10;100089.59;4868385;29;19931;-78
2023/09/24 12:09:29;;;;;;;;;;;;;;;22.34;88.69;100081.97;4869907;29;19952;-81
2023/09/24 12:11:54;;;;;;;;;;;;;;;22.52;86.46;100078.66;4869726;29;19924;-80
2023/09/24 12:14:19;;;;;;;;;;;;;;;22.68;85.48;100088.19;4867171;29;19990;-84
2023/09/24 12:16:45;;;;;;;;;;;;;;;22.79;90.30;100080.34;4863921;29;20285;-85
2023/09/24 12:19:10;;;;;;;;;;;;;;;22.91;87.24;100077.84;4870703;29;19924;-82
2023/09/24 12:21:36;;;;;;;;;;;;;;;23.04;84.98;100072.41;4867293;29;19935;-80
2023/09/24 12:24:01;;;;;;;;;;;;;;;23.16;82.40;100080.66;4865757;29;20440;-81
2023/09/24 12:26:26;;;;;;;;;;;;;;;23.28;81.69;100074.41;4865144;29;19927;-79
2023/09/24 12:28:52;;;;;;;;;;;;;;;23.43;80.74;100076.03;4866406;29;19924;-79
2023/09/24 12:31:17;;;;;;;;;;;;;;;23.55;79.49;100075.19;4869689;29;19963;-78